WEATHER DATA

TODAY
Time Temp. Dewp. Hum. Wind dir Wind speed Wind gust Bar. 1h Prec. 24h Prec.
00:04 10.9 6.8 76 348 0.3 0.8 1029.1 0.0000 0.0000
00:14 10.9 6.8 76 333 0.3 0.8 1028.9 0.0000 0.0000
00:25 10.8 6.7 76 315 0.3 0.8 1029.1 0.0000 0.0000
00:35 10.8 6.9 77 345 0.3 0.8 1029 0.0000 0.0000
00:44 10.7 6.8 77 354 0.3 0.8 1029.1 0.0000 0.0000
00:55 10.7 6.6 76 344 0.3 0.8 1029.1 0.0000 0.0000
01:05 10.7 6.8 77 335 0.3 0.8 1029 0.0000 0.0000
01:15 10.5 6.6 77 10 0.3 0.8 1029 0.0000 0.0000
01:25 10.4 6.5 77 335 0.3 0.8 1028.9 0.0000 0.0000
01:35 10.4 6.5 77 335 0.3 0.8 1028.9 0.0000 0.0000
01:45 10.3 6.5 77 315 0.3 0.8 1028.8 0.0000 0.0000
01:55 10.1 6.4 78 306 0.3 0.8 1028.6 0.0000 0.0000
02:05 10 6.3 78 270 0.3 0.8 1028.6 0.0000 0.0000
02:15 9.9 6.2 78 306 0.3 0.8 1028.6 0.0000 0.0000
02:25 9.8 6 77 326 0.3 0.8 1028.6 0.0000 0.0000
02:35 9.8 6.2 78 315 0.3 0.8 1028.8 0.0000 0.0000
02:45 9.7 6.1 78 354 0.3 0.8 1028.6 0.0000 0.0000
02:55 9.7 6.1 78 330 0.3 0.8 1028.5 0.0000 0.0000
03:05 9.6 6 78 331 0.3 0.8 1028.3 0.0000 0.0000
03:16 9.5 5.9 78 315 0.3 0.8 1028.3 0.0000 0.0000
03:25 9.4 5.8 78 325 0.3 0.8 1028.2 0.0000 0.0000
03:35 9.4 5.8 78 315 0.3 0.8 1028.2 0.0000 0.0000
03:45 9.4 5.9 79 270 0.3 0.8 1028.2 0.0000 0.0000
03:56 9.3 5.8 79 325 0.3 1.1 1028.2 0.0000 0.0000
04:05 9.3 5.8 79 338 0.3 0.8 1028.1 0.0000 0.0000
04:15 9.2 5.8 79 315 0.3 0.8 1028.2 0.0000 0.0000
04:26 9.1 5.7 79 309 0.3 0.8 1028.1 0.0000 0.0000
04:36 9 5.6 79 270 0.3 0.8 1027.9 0.0000 0.0000
04:45 9 5.7 80 315 0.3 0.8 1028.1 0.0000 0.0000
04:56 9 5.7 80 325 0.3 0.8 1027.9 0.0000 0.0000
05:06 9 5.7 80 336 0.3 0.8 1027.6 0.0000 0.0000
05:16 8.9 5.5 79 270 0.3 1.1 1027.8 0.0000 0.0000
05:25 8.7 5.3 79 315 0.3 0.8 1027.8 0.0000 0.0000
05:36 8.6 5.2 79 344 0.3 0.8 1027.9 0.0000 0.0000
05:46 8.5 5.3 80 308 0.3 1.1 1027.9 0.0000 0.0000
05:56 8.4 5 79 331 0.3 0.8 1027.6 0.0000 0.0000
06:06 8.3 4.9 79 333 0.3 0.8 1028 0.0000 0.0000
06:16 8.2 5 80 336 0.3 0.8 1028 0.0000 0.0000
06:26 8.2 5 80 345 0.3 0.8 1027.8 0.0000 0.0000
06:36 8.1 4.9 80 303 0.3 0.8 1028 0.0000 0.0000
06:46 8 4.8 80 330 0.3 0.8 1028.1 0.0000 0.0000
06:56 8 4.8 80 308 0.3 0.8 1028.1 0.0000 0.0000
07:06 8.1 4.9 80 270 0.3 1.1 1028.1 0.0000 0.0000
07:17 8.1 4.9 80 270 0.3 0.8 1028.1 0.0000 0.0000
07:26 8.1 4.9 80 270 0.3 0.8 1028.1 0.0000 0.0000
07:36 8 4.8 80 270 0.3 1.1 1028.2 0.0000 0.0000
07:46 8 4.8 80 270 0.3 1.4 1028.1 0.0000 0.0000
07:57 8.1 4.9 80 347 0.3 0.8 1028.1 0.0000 0.0000
08:06 8.3 5.1 80 338 0.3 1.1 1028 0.0000 0.0000
08:16 8.5 5.1 79 338 0.3 1.1 1028.2 0.0000 0.0000
08:27 8.7 5.1 78 270 0.3 1.1 1028 0.0000 0.0000
08:37 8.9 5.3 78 315 0.3 1.1 1027.8 0.0000 0.0000
08:53 9.5 5.7 77 270 0.3 0.8 1027.9 0.0000 0.0000
09:02 9.7 5.7 76 225 0.3 1.1 1027.9 0.0000 0.0000
09:13 10.2 6.2 76 309 0.3 1.4 1027.8 0.0000 0.0000
09:33 11.1 6.8 75 325 0.8 1.7 1027.8 0.0000 0.0000
09:43 11.4 7.1 75 315 0.3 1.1 1027.6 0.0000 0.0000
09:53 11.6 6.7 72 214 0.3 1.7 1027.6 0.0000 0.0000
10:03 12.2 7.5 73 321 0.8 2.5 1027.6 0.0000 0.0000
10:13 13.1 8.2 72 343 0.3 1.7 1027.5 0.0000 0.0000
10:24 14.1 8.7 70 327 0.8 3.9 1027.5 0.0000 0.0000
10:33 14.8 9.2 69 321 0.8 3.1 1027.5 0.0000 0.0000
10:43 15.4 9.3 67 321 1.1 4.2 1027.5 0.0000 0.0000
10:54 15.1 8.6 65 303 0.8 2.8 1027.5 0.0000 0.0000
11:04 15.1 8.1 63 239 0.3 2.5 1027.5 0.0000 0.0000
11:14 15.1 8.6 65 324 1.1 3.6 1027.4 0.0000 0.0000
11:23 15 8.5 65 318 0.8 1.7 1027.4 0.0000 0.0000
11:34 15.4 9.1 66 315 0.8 2.5 1027.4 0.0000 0.0000
11:44 15.8 8.8 63 310 1.1 4.2 1027.4 0.0000 0.0000
11:54 15.7 8.7 63 323 1.1 2.5 1027.3 0.0000 0.0000
12:04 16.1 9.1 63 332 0.8 1.7 1027.3 0.0000 0.0000
12:14 16.2 8.9 62 340 0.8 2.2 1027.3 0.0000 0.0000
12:24 16.2 9.2 63 334 0.8 1.4 1027.2 0.0000 0.0000
12:34 16.1 8.8 62 333 1.1 2.5 1027 0.0000 0.0000
12:44 16.2 8.7 61 334 0.8 2.5 1026.9 0.0000 0.0000
12:54 17.1 9.8 62 318 0.8 2.5 1026.9 0.0000 0.0000
13:04 16.8 9 60 352 1.1 2.5 1026.8 0.0000 0.0000
13:14 16.8 9.2 61 330 1.1 2.5 1026.9 0.0000 0.0000
13:24 17.2 9.4 60 332 1.1 3.1 1026.8 0.0000 0.0000
13:34 17.2 9.4 60 345 1.1 3.1 1027 0.0000 0.0000
13:44 16.9 8.8 59 329 1.1 2.8 1026.9 0.0000 0.0000
13:55 16.6 8.8 60 343 1.1 2.5 1026.9 0.0000 0.0000
14:04 16.7 8.9 60 342 0.8 1.7 1026.8 0.0000 0.0000
14:14 16.6 8.8 60 326 0.8 1.7 1026.7 0.0000 0.0000
14:25 16.3 8.5 60 344 0.8 2.8 1026.7 0.0000 0.0000
14:35 16.2 8.4 60 353 1.1 2.5 1026.5 0.0000 0.0000
14:44 16.1 8.3 60 355 0.8 2.5 1026.3 0.0000 0.0000
14:54 16.2 8.7 61 335 0.8 2.2 1026.2 0.0000 0.0000
15:05 16.1 8.6 61 326 1.1 3.6 1026.2 0.0000 0.0000
15:15 16.2 8.9 62 338 0.8 1.7 1026.1 0.0000 0.0000
15:24 16.3 8.8 61 340 0.8 2.5 1026.1 0.0000 0.0000
15:35 16.4 9.1 62 319 1.1 3.6 1026.2 0.0000 0.0000
15:45 16.8 9.2 61 322 1.1 3.6 1026.2 0.0000 0.0000
16:05 16.9 9.1 60 345 1.4 3.1 1026.1 0.0000 0.0000
16:15 17.1 9.3 60 322 1.1 4.2 1025.9 0.0000 0.0000
16:25 17.1 9 59 329 1.1 2.8 1025.9 0.0000 0.0000
16:34 17.3 9.5 60 321 0.8 2.8 1025.8 0.0000 0.0000
16:45 17.2 9.4 60 337 1.1 2.8 1025.7 0.0000 0.0000
16:55 17.2 9.1 59 334 1.1 2.2 1025.7 0.0000 0.0000
17:05 17.2 9.4 60 335 1.1 3.6 1025.9 0.0000 0.0000
17:15 17.2 9.4 60 324 1.1 3.1 1025.7 0.0000 0.0000
17:25 16.9 9.1 60 346 1.1 2.5 1025.8 0.0000 0.0000
17:35 16.7 8.9 60 340 1.1 2.5 1025.8 0.0000 0.0000
17:48 16.5 8.5 59 316 1.1 5 1025.7 0.0000 0.0000
17:57 16.5 8.7 60 339 0.8 2.2 1025.9 0.0000 0.0000
18:08 16.4 8.6 60 328 0.8 2.5 1025.9 0.0000 0.0000
18:18 16.3 8.5 60 343 0.8 2.2 1025.9 0.0000 0.0000
18:27 16.2 8.4 60 335 1.1 2.5 1025.9 0.0000 0.0000
18:37 16.1 8.1 59 324 1.1 2.5 1025.8 0.0000 0.0000
18:48 16 8.2 60 341 0.8 2.2 1025.7 0.0000 0.0000
18:58 15.9 7.9 59 356 0.8 1.7 1025.9 0.0000 0.0000
19:07 15.9 8.2 60 333 0.8 2.2 1025.9 0.0000 0.0000
19:18 15.7 8.2 61 321 0.8 1.4 1025.8 0.0000 0.0000
19:28 15.6 8.4 62 339 0.8 2.2 1025.9 0.0000 0.0000

DAY STATISTIC

2018-06-23
TEMPERATURE
AVERAGE
12.7
HIGH
17.3
16:34
LOW
8.0
06:46
PRESSURE
AVERAGE
1027.4
HIGH
1029.1
00:04
LOW
1025.7
16:45
DEWPOINT
AVERAGE
7.3
HIGH
9.8
12:54
LOW
4.8
06:46
HUMIDITY
AVERAGE
70
HIGH
80
04:45
LOW
59
13:44
WIND SPEED
AVERAGE
0.6
HIGH
1.4
16:05
WIND GUST
AVERAGE
1.8
HIGH
5.0
17:48
WIND DIRECTION
PREVAILING
NW
60.5%
N
27.2
NE
0.0
E
0.0
SE
0.0
S
0.0
SW
2.6
W
9.6
NW
60.5
PRECIPITATION
RAIN HOUR
0.0
RAIN DAY
0.0
TEMPERATURE (°C)
LOW
8.0
HIGH
17.3
AVERAGE
12.7
PRESSURE (hpa)
LOW
1025.7
HIGH
1029.1
AVERAGE
1027.4
DEVICE